Time;durP1;ratioP1;P1;durP2;ratioP2;P2;SDS_P1;SDS_P2;PMS_P1;PMS_P2;Temp;Humidity;BMP_temperature;BMP_pressure;BME280_temperature;BME280_humidity;BME280_pressure;Samples;Min_cycle;Max_cycle;Signal;HPM_P1;HPM_P2
2023/08/06 00:01:49;;;;;;;;;;;14.90;99.90;;;;;;5133711;27;20373;-43
2023/08/06 00:04:15;;;;;;;;;;;14.90;99.90;;;;;;5132852;27;19927;-45
2023/08/06 00:06:40;;;;;;;;;;;14.80;99.90;;;;;;5133720;28;20014;-44
2023/08/06 00:09:06;;;;;;;;;;;14.90;99.90;;;;;;5133779;28;19908;-43
2023/08/06 00:11:31;;;;;;;;;;;14.80;99.90;;;;;;5133100;28;19908;-43
2023/08/06 00:13:57;;;;;;;;;;;14.80;99.90;;;;;;5133772;28;19907;-43
2023/08/06 00:16:22;;;;;;;;;;;14.80;99.90;;;;;;5133718;28;19943;-44
2023/08/06 00:18:48;;;;;;;;;;;14.80;99.90;;;;;;5132749;28;19973;-43
2023/08/06 00:21:13;;;;;;;;;;;14.90;99.90;;;;;;5133550;28;19908;-44
2023/08/06 00:23:39;;;;;;;;;;;14.80;99.90;;;;;;5133172;28;19916;-42
2023/08/06 00:26:05;;;;;;;;;;;14.80;99.90;;;;;;5133298;28;19908;-43
2023/08/06 00:28:30;;;;;;;;;;;14.80;99.90;;;;;;5139081;27;19911;-42
2023/08/06 00:30:56;;;;;;;;;;;14.80;99.90;;;;;;5153402;27;19911;-44
2023/08/06 00:33:25;;;;;;;;;;;14.80;99.90;;;;;;5157135;27;19942;-44
2023/08/06 00:35:50;;;;;;;;;;;14.80;99.90;;;;;;5158374;27;19907;-43
2023/08/06 00:38:16;;;;;;;;;;;14.90;99.90;;;;;;5157248;27;19915;-44
2023/08/06 00:40:41;;;;;;;;;;;14.80;99.90;;;;;;5158222;27;19911;-46
2023/08/06 00:43:07;;;;;;;;;;;14.80;99.90;;;;;;5157919;27;19926;-43
2023/08/06 00:45:36;;;;;;;;;;;14.80;99.90;;;;;;5157596;27;19942;-44
2023/08/06 00:48:03;;;;;;;;;;;14.80;99.90;;;;;;5158068;27;19907;-45
2023/08/06 00:50:29;;;;;;;;;;;14.90;99.90;;;;;;5158060;27;19908;-44
2023/08/06 00:52:55;;;;;;;;;;;14.90;99.90;;;;;;5157327;27;19907;-44
2023/08/06 00:55:20;;;;;;;;;;;14.90;99.90;;;;;;5158048;27;20060;-43
2023/08/06 00:57:46;;;;;;;;;;;14.90;99.90;;;;;;5157893;27;19918;-45
2023/08/06 01:00:11;;;;;;;;;;;14.90;99.90;;;;;;5156745;27;19911;-44
2023/08/06 01:02:37;;;;;;;;;;;15.00;99.90;;;;;;5157686;27;19928;-44
2023/08/06 01:05:03;;;;;;;;;;;14.90;99.90;;;;;;5157740;27;19965;-45
2023/08/06 01:07:46;;;;;;;;;;;14.90;99.90;;;;;;5152520;27;19950;-43
2023/08/06 01:10:11;;;;;;;;;;;14.90;99.90;;;;;;5098199;28;19912;-44
2023/08/06 01:12:40;;;;;;;;;;;14.90;99.90;;;;;;5126667;27;19998;-43
2023/08/06 01:15:14;;;;;;;;;;;14.90;99.90;;;;;;5136198;27;20408;-43
2023/08/06 01:17:40;;;;;;;;;;;14.90;99.90;;;;;;5120564;27;19969;-43
2023/08/06 01:20:06;;;;;;;;;;;14.90;99.90;;;;;;5115472;28;20316;-43
2023/08/06 01:22:31;;;;;;;;;;;14.90;99.90;;;;;;5116138;28;19916;-44
2023/08/06 01:24:57;;;;;;;;;;;14.90;99.90;;;;;;5097761;28;20392;-43
2023/08/06 01:27:33;;;;;;;;;;;14.90;99.90;;;;;;5116598;27;19912;-43
2023/08/06 01:30:09;;;;;;;;;;;14.90;99.90;;;;;;5148359;27;20455;-43
2023/08/06 01:32:35;;;;;;;;;;;14.90;99.90;;;;;;5115966;28;19912;-44
2023/08/06 01:35:02;;;;;;;;;;;14.90;99.90;;;;;;5115111;28;20297;-43
2023/08/06 01:37:27;;;;;;;;;;;14.90;99.90;;;;;;5126650;27;20292;-42
2023/08/06 01:39:53;;;;;;;;;;;14.90;99.90;;;;;;5136411;27;19912;-44
2023/08/06 01:42:18;;;;;;;;;;;14.90;99.90;;;;;;5135225;27;20335;-43
2023/08/06 01:44:44;;;;;;;;;;;14.90;99.90;;;;;;5135356;27;19923;-44
2023/08/06 01:47:09;;;;;;;;;;;14.90;99.90;;;;;;5136231;27;20372;-44
2023/08/06 01:49:35;;;;;;;;;;;14.90;99.90;;;;;;5135369;27;19907;-43
2023/08/06 01:52:00;;;;;;;;;;;14.90;99.90;;;;;;5136337;27;19911;-43
2023/08/06 01:54:27;;;;;;;;;;;14.90;99.90;;;;;;5136120;27;20269;-43
2023/08/06 01:56:53;;;;;;;;;;;14.90;99.90;;;;;;5135201;27;19907;-43
2023/08/06 01:59:18;;;;;;;;;;;14.80;99.90;;;;;;5128109;27;20378;-43
2023/08/06 02:01:44;;;;;;;;;;;14.80;99.90;;;;;;5145253;27;19918;-44
2023/08/06 02:04:10;;;;;;;;;;;14.80;99.90;;;;;;5155866;27;20438;-44
2023/08/06 02:06:35;;;;;;;;;;;14.80;99.90;;;;;;5156527;27;19915;-43
2023/08/06 02:09:01;;;;;;;;;;;14.80;99.90;;;;;;5156658;27;19907;-44
2023/08/06 02:11:26;;;;;;;;;;;14.80;99.90;;;;;;5155556;27;19907;-45
2023/08/06 02:13:52;;;;;;;;;;;14.80;99.90;;;;;;5156521;27;19911;-43
2023/08/06 02:16:17;;;;;;;;;;;14.70;99.90;;;;;;5155655;27;19907;-44
2023/08/06 02:18:42;;;;;;;;;;;14.80;99.90;;;;;;5156293;27;19911;-43
2023/08/06 02:21:08;;;;;;;;;;;14.70;99.90;;;;;;5156368;27;20289;-44
2023/08/06 02:23:33;;;;;;;;;;;14.70;99.90;;;;;;5155337;27;20344;-43
2023/08/06 02:26:03;;;;;;;;;;;14.70;99.90;;;;;;5156157;27;20277;-44
2023/08/06 02:28:29;;;;;;;;;;;14.70;99.90;;;;;;5156302;27;19945;-44
2023/08/06 02:30:55;;;;;;;;;;;14.70;99.90;;;;;;5148256;27;20052;-44
2023/08/06 02:33:20;;;;;;;;;;;14.70;99.90;;;;;;5135217;27;19994;-44
2023/08/06 02:35:46;;;;;;;;;;;14.70;99.90;;;;;;5135201;27;19911;-45
2023/08/06 02:38:11;;;;;;;;;;;14.70;99.90;;;;;;5134548;27;19914;-45
2023/08/06 02:40:42;;;;;;;;;;;14.70;99.90;;;;;;5135114;27;19914;-44
2023/08/06 02:43:07;;;;;;;;;;;14.70;99.90;;;;;;5135022;27;19963;-44
2023/08/06 02:45:33;;;;;;;;;;;14.70;99.90;;;;;;5134193;27;20009;-43
2023/08/06 02:47:58;;;;;;;;;;;14.70;99.90;;;;;;5135156;27;20077;-43
2023/08/06 02:50:24;;;;;;;;;;;14.70;99.90;;;;;;5134975;27;19956;-43
2023/08/06 02:52:49;;;;;;;;;;;14.70;99.90;;;;;;5134215;27;19907;-44
2023/08/06 02:55:15;;;;;;;;;;;14.70;99.90;;;;;;5134721;27;19953;-43
2023/08/06 02:57:40;;;;;;;;;;;14.70;99.90;;;;;;5134757;27;19911;-43
2023/08/06 03:00:06;;;;;;;;;;;14.70;99.90;;;;;;5133947;27;20285;-44
2023/08/06 03:02:31;;;;;;;;;;;14.70;99.90;;;;;;5154846;27;19911;-42
2023/08/06 03:04:57;;;;;;;;;;;14.70;99.90;;;;;;5155287;27;19930;-43
2023/08/06 03:07:22;;;;;;;;;;;14.80;99.90;;;;;;5154553;27;20001;-45
2023/08/06 03:09:48;;;;;;;;;;;14.70;99.90;;;;;;5155153;27;19929;-44
2023/08/06 03:12:13;;;;;;;;;;;14.80;99.90;;;;;;5155432;27;19914;-44
2023/08/06 03:14:39;;;;;;;;;;;14.70;99.90;;;;;;5154560;27;19907;-43
2023/08/06 03:17:04;;;;;;;;;;;14.70;99.90;;;;;;5155194;27;19999;-43
2023/08/06 03:19:30;;;;;;;;;;;14.70;99.90;;;;;;5154565;27;19913;-43
2023/08/06 03:21:55;;;;;;;;;;;14.70;99.90;;;;;;5154926;27;19907;-44
2023/08/06 03:24:21;;;;;;;;;;;14.70;99.90;;;;;;5154999;27;19964;-43
2023/08/06 03:26:46;;;;;;;;;;;14.70;99.90;;;;;;5154178;27;19998;-43
2023/08/06 03:29:12;;;;;;;;;;;14.60;99.90;;;;;;5155117;27;19907;-44
2023/08/06 03:31:37;;;;;;;;;;;14.60;99.90;;;;;;5142534;27;20365;-42
2023/08/06 03:34:03;;;;;;;;;;;14.60;99.90;;;;;;5133577;27;19960;-44
2023/08/06 03:36:28;;;;;;;;;;;14.50;99.90;;;;;;5134108;27;19908;-44
2023/08/06 03:38:54;;;;;;;;;;;14.60;99.90;;;;;;5134114;27;19984;-42
2023/08/06 03:41:19;;;;;;;;;;;14.40;99.90;;;;;;5133447;27;19908;-43
2023/08/06 03:43:45;;;;;;;;;;;14.40;99.90;;;;;;5133622;27;20078;-44
2023/08/06 03:46:10;;;;;;;;;;;14.40;99.90;;;;;;5134169;27;19914;-44
2023/08/06 03:48:36;;;;;;;;;;;14.30;99.90;;;;;;5132907;27;20330;-44
2023/08/06 03:51:02;;;;;;;;;;;14.30;99.90;;;;;;5133961;27;19915;-46
2023/08/06 03:53:27;;;;;;;;;;;14.20;99.90;;;;;;5133719;27;19907;-43
2023/08/06 03:55:53;;;;;;;;;;;14.20;99.90;;;;;;5133113;27;20380;-44
2023/08/06 03:58:18;;;;;;;;;;;14.20;99.90;;;;;;5133865;27;19907;-44
2023/08/06 04:00:43;;;;;;;;;;;14.10;99.90;;;;;;5137900;27;19918;-45
2023/08/06 04:03:09;;;;;;;;;;;14.10;99.90;;;;;;5153774;27;19997;-44
2023/08/06 04:05:34;;;;;;;;;;;14.10;99.90;;;;;;5154358;27;19915;-43
2023/08/06 04:08:00;;;;;;;;;;;14.00;99.90;;;;;;5137553;27;19915;-44
2023/08/06 04:10:25;;;;;;;;;;;14.00;99.90;;;;;;5132745;28;20396;-44
2023/08/06 04:12:51;;;;;;;;;;;14.10;99.90;;;;;;5133610;28;19907;-43
2023/08/06 04:15:17;;;;;;;;;;;14.10;99.90;;;;;;5133717;28;20019;-43
2023/08/06 04:17:42;;;;;;;;;;;14.10;99.90;;;;;;5132797;28;19915;-43
2023/08/06 04:20:08;;;;;;;;;;;14.10;99.90;;;;;;5133701;28;19908;-44
2023/08/06 04:22:33;;;;;;;;;;;14.10;99.90;;;;;;5133522;28;20411;-47
2023/08/06 04:24:59;;;;;;;;;;;14.10;99.90;;;;;;5132828;28;19915;-44
2023/08/06 04:27:25;;;;;;;;;;;14.10;99.90;;;;;;5133659;28;20006;-44
2023/08/06 04:29:51;;;;;;;;;;;14.10;99.90;;;;;;5132884;28;19908;-43
2023/08/06 04:32:17;;;;;;;;;;;14.10;99.90;;;;;;5149902;27;19915;-44
2023/08/06 04:34:43;;;;;;;;;;;14.10;99.90;;;;;;5154113;27;19942;-43
2023/08/06 04:37:08;;;;;;;;;;;14.10;99.90;;;;;;5153394;27;19907;-44
2023/08/06 04:39:34;;;;;;;;;;;14.10;99.90;;;;;;5154096;27;20002;-44
2023/08/06 04:41:59;;;;;;;;;;;14.10;99.90;;;;;;5153904;27;19911;-43
2023/08/06 04:44:25;;;;;;;;;;;14.10;99.90;;;;;;5153361;27;19922;-44
2023/08/06 04:46:51;;;;;;;;;;;14.10;99.90;;;;;;5154028;27;19911;-43
2023/08/06 04:49:17;;;;;;;;;;;14.10;99.90;;;;;;5154090;27;20376;-44
2023/08/06 04:51:42;;;;;;;;;;;14.10;99.90;;;;;;5153106;27;19943;-44
2023/08/06 04:54:08;;;;;;;;;;;14.10;99.90;;;;;;5153994;27;19959;-44
2023/08/06 04:56:33;;;;;;;;;;;14.10;99.90;;;;;;5154130;27;19907;-44
2023/08/06 04:58:59;;;;;;;;;;;14.20;99.90;;;;;;5153197;27;19981;-44
2023/08/06 05:01:24;;;;;;;;;;;14.20;99.90;;;;;;5153681;27;19911;-44
2023/08/06 05:03:50;;;;;;;;;;;14.20;99.90;;;;;;5153936;27;19919;-45
2023/08/06 05:06:15;;;;;;;;;;;14.30;99.90;;;;;;5153053;27;19907;-45
2023/08/06 05:08:41;;;;;;;;;;;14.40;99.90;;;;;;5141124;27;19934;-44
2023/08/06 05:11:06;;;;;;;;;;;14.40;99.90;;;;;;5122801;28;20370;-44
2023/08/06 05:13:32;;;;;;;;;;;14.40;99.90;;;;;;5132091;28;19951;-44
2023/08/06 05:15:57;;;;;;;;;;;14.50;99.90;;;;;;5133270;28;19908;-44
2023/08/06 05:18:23;;;;;;;;;;;14.50;99.90;;;;;;5133162;27;19908;-43
2023/08/06 05:20:48;;;;;;;;;;;14.50;99.90;;;;;;5135516;27;19909;-45
2023/08/06 05:23:14;;;;;;;;;;;14.60;99.90;;;;;;5137027;27;19917;-44
2023/08/06 05:25:39;;;;;;;;;;;14.60;99.90;;;;;;5136563;27;20285;-43
2023/08/06 05:28:05;;;;;;;;;;;14.60;99.90;;;;;;5135917;27;19911;-43
2023/08/06 05:30:30;;;;;;;;;;;14.60;99.90;;;;;;5137753;27;19919;-44
2023/08/06 05:32:56;;;;;;;;;;;14.70;99.90;;;;;;5127135;27;20000;-43
2023/08/06 05:35:22;;;;;;;;;;;14.80;99.90;;;;;;5128424;27;19919;-44
2023/08/06 05:37:47;;;;;;;;;;;14.80;99.90;;;;;;5129760;27;19911;-46
2023/08/06 05:40:13;;;;;;;;;;;14.90;99.90;;;;;;5127214;27;19912;-44
2023/08/06 05:42:39;;;;;;;;;;;14.90;99.90;;;;;;5116687;27;20154;-44
2023/08/06 05:45:04;;;;;;;;;;;15.00;99.90;;;;;;5115626;28;20358;-44
2023/08/06 05:47:30;;;;;;;;;;;15.00;99.90;;;;;;5129063;27;19963;-43
2023/08/06 05:49:55;;;;;;;;;;;15.10;99.90;;;;;;5119745;27;19916;-44
2023/08/06 05:52:21;;;;;;;;;;;15.10;99.90;;;;;;5134847;27;19920;-44
2023/08/06 05:54:46;;;;;;;;;;;15.10;99.90;;;;;;5135398;27;20311;-44
2023/08/06 05:57:12;;;;;;;;;;;15.10;99.90;;;;;;5136146;27;20286;-43
2023/08/06 05:59:37;;;;;;;;;;;15.20;99.90;;;;;;5136034;27;19911;-43
2023/08/06 06:02:03;;;;;;;;;;;15.20;99.90;;;;;;5131859;27;20270;-44
2023/08/06 06:04:29;;;;;;;;;;;15.20;99.90;;;;;;5115181;28;19916;-44
2023/08/06 06:06:54;;;;;;;;;;;15.30;99.90;;;;;;5124206;27;19912;-43
2023/08/06 06:09:20;;;;;;;;;;;15.30;99.90;;;;;;5135450;27;19919;-44
2023/08/06 06:11:45;;;;;;;;;;;15.30;99.90;;;;;;5138397;27;19939;-44
2023/08/06 06:14:11;;;;;;;;;;;15.30;99.90;;;;;;5144827;27;19915;-44
2023/08/06 06:16:36;;;;;;;;;;;15.30;99.90;;;;;;5145582;27;20289;-44
2023/08/06 06:19:02;;;;;;;;;;;15.30;99.90;;;;;;5135671;27;20044;-44
2023/08/06 06:21:27;;;;;;;;;;;15.40;99.90;;;;;;5135301;27;20273;-44
2023/08/06 06:23:53;;;;;;;;;;;15.40;99.90;;;;;;5134748;27;20010;-45
2023/08/06 06:26:18;;;;;;;;;;;15.40;99.90;;;;;;5135616;27;19968;-44
2023/08/06 06:28:44;;;;;;;;;;;15.40;99.90;;;;;;5131470;27;20390;-44
2023/08/06 06:31:09;;;;;;;;;;;15.40;99.90;;;;;;5130263;27;20297;-45
2023/08/06 06:33:35;;;;;;;;;;;15.50;99.90;;;;;;5123544;27;19923;-44
2023/08/06 06:36:03;;;;;;;;;;;15.50;99.90;;;;;;5135080;27;19911;-46
2023/08/06 06:38:28;;;;;;;;;;;15.50;99.90;;;;;;5133729;27;19996;-44
2023/08/06 06:40:57;;;;;;;;;;;15.60;99.90;;;;;;5129816;27;19959;-46
2023/08/06 06:43:22;;;;;;;;;;;15.60;99.90;;;;;;5133724;27;19920;-44
2023/08/06 06:46:08;;;;;;;;;;;15.60;99.90;;;;;;5134215;27;19918;-44
2023/08/06 06:48:34;;;;;;;;;;;15.60;99.90;;;;;;5138242;27;19911;-45
2023/08/06 06:50:59;;;;;;;;;;;15.70;99.90;;;;;;5147500;27;20016;-44
2023/08/06 06:53:27;;;;;;;;;;;15.70;99.90;;;;;;5139519;27;19911;-45
2023/08/06 06:55:56;;;;;;;;;;;15.80;99.90;;;;;;5155593;27;19911;-44
2023/08/06 06:58:22;;;;;;;;;;;15.80;99.90;;;;;;5147744;27;19912;-45
2023/08/06 07:00:48;;;;;;;;;;;15.90;99.90;;;;;;5146993;27;20362;-45
2023/08/06 07:03:14;;;;;;;;;;;15.90;99.90;;;;;;5145959;27;19911;-45
2023/08/06 07:05:39;;;;;;;;;;;15.90;99.90;;;;;;5134788;27;19922;-45
2023/08/06 07:08:05;;;;;;;;;;;16.00;99.90;;;;;;5134604;27;20277;-44
2023/08/06 07:10:30;;;;;;;;;;;16.00;99.90;;;;;;5136797;27;19912;-44
2023/08/06 07:12:56;;;;;;;;;;;16.10;99.90;;;;;;5133147;27;19953;-45
2023/08/06 07:15:21;;;;;;;;;;;16.10;99.90;;;;;;5133552;27;20349;-44
2023/08/06 07:17:47;;;;;;;;;;;16.20;99.90;;;;;;5131237;27;20018;-46
2023/08/06 07:20:12;;;;;;;;;;;16.20;99.90;;;;;;5123932;27;19915;-44
2023/08/06 07:22:38;;;;;;;;;;;16.30;99.90;;;;;;5118219;27;20446;-45
2023/08/06 07:25:03;;;;;;;;;;;16.30;99.90;;;;;;5128535;27;19916;-45
2023/08/06 07:27:29;;;;;;;;;;;16.40;99.90;;;;;;5127229;27;19989;-46
2023/08/06 07:29:54;;;;;;;;;;;16.40;99.90;;;;;;5154042;27;19915;-45
2023/08/06 07:32:20;;;;;;;;;;;16.40;99.90;;;;;;5137702;27;19933;-44
2023/08/06 07:34:45;;;;;;;;;;;16.40;99.90;;;;;;5147108;27;19988;-44
2023/08/06 07:37:11;;;;;;;;;;;16.40;99.90;;;;;;5154767;27;19911;-44
2023/08/06 07:39:39;;;;;;;;;;;16.40;99.90;;;;;;5141151;27;19958;-44
2023/08/06 07:42:05;;;;;;;;;;;16.40;99.90;;;;;;5124798;27;19950;-44
2023/08/06 07:44:31;;;;;;;;;;;16.50;99.90;;;;;;5129955;27;19919;-44
2023/08/06 07:46:56;;;;;;;;;;;16.50;99.90;;;;;;5132542;27;19964;-44
2023/08/06 07:49:22;;;;;;;;;;;16.60;99.90;;;;;;5133467;27;19907;-45
2023/08/06 07:51:47;;;;;;;;;;;16.70;99.90;;;;;;5124361;27;19911;-45
2023/08/06 07:54:13;;;;;;;;;;;16.70;99.90;;;;;;5113372;27;19997;-43
2023/08/06 07:56:39;;;;;;;;;;;16.80;99.90;;;;;;5133833;27;20283;-46
2023/08/06 07:59:04;;;;;;;;;;;16.80;99.90;;;;;;5123613;27;19912;-44
2023/08/06 08:01:30;;;;;;;;;;;16.80;99.90;;;;;;5113307;28;19939;-44
2023/08/06 08:03:55;;;;;;;;;;;16.90;99.90;;;;;;5115239;27;20266;-43
2023/08/06 08:06:20;;;;;;;;;;;16.90;99.90;;;;;;5114035;28;19908;-44
2023/08/06 08:08:46;;;;;;;;;;;16.90;99.90;;;;;;5126066;28;19912;-44
2023/08/06 08:11:11;;;;;;;;;;;17.00;99.90;;;;;;5134622;27;19911;-45
2023/08/06 08:13:37;;;;;;;;;;;17.10;99.90;;;;;;5134250;28;19913;-44
2023/08/06 08:16:03;;;;;;;;;;;17.20;99.90;;;;;;5132644;28;19907;-44
2023/08/06 08:18:29;;;;;;;;;;;17.20;99.90;;;;;;5117186;28;19934;-43
2023/08/06 08:20:55;;;;;;;;;;;17.30;99.90;;;;;;5116620;28;19915;-44
2023/08/06 08:23:20;;;;;;;;;;;17.30;99.90;;;;;;5116521;28;19918;-45
2023/08/06 08:25:46;;;;;;;;;;;17.40;99.90;;;;;;5117547;27;20286;-45
2023/08/06 08:28:12;;;;;;;;;;;17.50;99.90;;;;;;5149803;27;19950;-46
2023/08/06 08:30:37;;;;;;;;;;;17.60;99.90;;;;;;5154030;27;20552;-44
2023/08/06 08:33:03;;;;;;;;;;;17.70;99.90;;;;;;5149562;27;20406;-43
2023/08/06 08:35:28;;;;;;;;;;;17.80;99.90;;;;;;5137452;27;19919;-43
2023/08/06 08:37:54;;;;;;;;;;;17.90;99.90;;;;;;5144649;27;19911;-44
2023/08/06 08:40:22;;;;;;;;;;;18.00;99.90;;;;;;5138369;27;19911;-44
2023/08/06 08:42:48;;;;;;;;;;;18.10;99.90;;;;;;5133674;28;19919;-44
2023/08/06 08:45:14;;;;;;;;;;;18.20;99.90;;;;;;5140844;27;19926;-43
2023/08/06 08:47:43;;;;;;;;;;;18.20;99.90;;;;;;5138725;27;19990;-44
2023/08/06 08:50:10;;;;;;;;;;;18.20;99.90;;;;;;5135999;27;20339;-44
2023/08/06 08:52:36;;;;;;;;;;;18.30;99.90;;;;;;5134483;27;20010;-44
2023/08/06 08:55:02;;;;;;;;;;;18.30;99.90;;;;;;5152227;27;19958;-44
2023/08/06 08:57:27;;;;;;;;;;;18.40;99.90;;;;;;5136438;27;19916;-44
2023/08/06 08:59:53;;;;;;;;;;;18.40;99.90;;;;;;5140751;27;20353;-43
2023/08/06 09:02:20;;;;;;;;;;;18.40;99.90;;;;;;5137823;27;20353;-44
2023/08/06 09:04:46;;;;;;;;;;;18.40;99.90;;;;;;5148571;27;20389;-43
2023/08/06 09:07:15;;;;;;;;;;;18.50;99.90;;;;;;5140354;27;19916;-44
2023/08/06 09:09:41;;;;;;;;;;;18.50;99.90;;;;;;5120320;27;19952;-43
2023/08/06 09:12:26;;;;;;;;;;;18.60;99.90;;;;;;5122881;27;19916;-44
2023/08/06 09:14:52;;;;;;;;;;;18.60;99.90;;;;;;5135644;27;19908;-44
2023/08/06 09:17:19;;;;;;;;;;;18.80;99.90;;;;;;5139272;27;19915;-49
2023/08/06 09:19:46;;;;;;;;;;;18.90;99.90;;;;;;5116236;28;20293;-43
2023/08/06 09:22:13;;;;;;;;;;;19.00;99.90;;;;;;5116934;28;19908;-46
2023/08/06 09:24:40;;;;;;;;;;;19.10;99.90;;;;;;5116652;28;19911;-44
2023/08/06 09:27:10;;;;;;;;;;;19.20;99.90;;;;;;5134293;27;19908;-44
2023/08/06 09:29:39;;;;;;;;;;;19.30;99.90;;;;;;5135407;27;20362;-44
2023/08/06 09:32:05;;;;;;;;;;;19.30;99.90;;;;;;5137292;27;19907;-44
2023/08/06 09:34:30;;;;;;;;;;;19.40;99.90;;;;;;5136694;27;19915;-44
2023/08/06 09:36:56;;;;;;;;;;;19.50;99.90;;;;;;5134973;27;20349;-45
2023/08/06 09:39:27;;;;;;;;;;;19.50;99.90;;;;;;5134913;27;19911;-46
2023/08/06 09:41:56;;;;;;;;;;;19.50;99.90;;;;;;5136962;27;19911;-44
2023/08/06 09:44:23;;;;;;;;;;;19.60;99.90;;;;;;5123496;27;19916;-45
2023/08/06 09:46:53;;;;;;;;;;;19.60;99.90;;;;;;5115943;28;20025;-44
2023/08/06 09:49:19;;;;;;;;;;;19.60;99.90;;;;;;5116243;28;20347;-45
2023/08/06 09:51:45;;;;;;;;;;;19.60;99.90;;;;;;5116136;28;19908;-44
2023/08/06 09:54:12;;;;;;;;;;;19.70;99.90;;;;;;5115839;28;19961;-44
2023/08/06 09:56:38;;;;;;;;;;;19.80;99.90;;;;;;5116097;28;20324;-43
2023/08/06 09:59:04;;;;;;;;;;;19.80;99.90;;;;;;5116050;28;19921;-44
2023/08/06 10:01:31;;;;;;;;;;;19.80;99.90;;;;;;5115615;28;19912;-44
2023/08/06 10:03:57;;;;;;;;;;;19.80;99.90;;;;;;5115890;28;19916;-44
2023/08/06 10:06:23;;;;;;;;;;;19.90;99.90;;;;;;5115128;28;20052;-44
2023/08/06 10:08:49;;;;;;;;;;;19.90;99.90;;;;;;5139746;27;20412;-44
2023/08/06 10:11:16;;;;;;;;;;;20.00;99.90;;;;;;5157678;27;20002;-44
2023/08/06 10:13:42;;;;;;;;;;;20.00;99.90;;;;;;5157188;27;20257;-43
2023/08/06 10:16:07;;;;;;;;;;;20.10;99.90;;;;;;5156621;27;19918;-44
2023/08/06 10:18:33;;;;;;;;;;;20.10;99.90;;;;;;5157047;27;19907;-45
2023/08/06 10:20:59;;;;;;;;;;;20.20;99.90;;;;;;5156679;27;20479;-45
2023/08/06 10:23:35;;;;;;;;;;;20.20;99.90;;;;;;5131570;27;20354;-44
2023/08/06 10:26:01;;;;;;;;;;;20.30;99.90;;;;;;5134383;27;19927;-44
2023/08/06 10:28:39;;;;;;;;;;;20.40;99.90;;;;;;5120229;27;19916;-43
2023/08/06 10:31:05;;;;;;;;;;;20.40;99.90;;;;;;5115486;28;20343;-43
2023/08/06 10:33:40;;;;;;;;;;;20.50;99.90;;;;;;5132385;27;19914;-44
2023/08/06 10:36:09;;;;;;;;;;;20.50;99.90;;;;;;5135750;27;19930;-45
2023/08/06 10:38:36;;;;;;;;;;;20.40;99.90;;;;;;5136980;27;20347;-44
2023/08/06 10:41:03;;;;;;;;;;;20.40;99.90;;;;;;5135907;27;19914;-44
2023/08/06 10:43:33;;;;;;;;;;;20.30;99.90;;;;;;5116761;27;20301;-44
2023/08/06 10:45:59;;;;;;;;;;;20.30;99.90;;;;;;5135786;27;20018;-45
2023/08/06 10:48:34;;;;;;;;;;;20.30;99.90;;;;;;5135853;27;19911;-45
2023/08/06 10:51:00;;;;;;;;;;;20.30;99.90;;;;;;5134559;27;19964;-43
2023/08/06 10:53:25;;;;;;;;;;;20.30;99.90;;;;;;5135624;27;19908;-44
2023/08/06 10:55:50;;;;;;;;;;;20.30;99.90;;;;;;5134387;27;19998;-44
2023/08/06 10:58:16;;;;;;;;;;;20.30;99.90;;;;;;5133756;27;20235;-44
2023/08/06 11:00:42;;;;;;;;;;;20.30;99.90;;;;;;5134128;27;20403;-45
2023/08/06 11:03:08;;;;;;;;;;;20.30;99.90;;;;;;5135460;27;19955;-45
2023/08/06 11:05:34;;;;;;;;;;;20.30;99.90;;;;;;5126440;27;19970;-45
2023/08/06 11:07:59;;;;;;;;;;;20.30;99.90;;;;;;5124589;27;19998;-44
2023/08/06 11:10:24;;;;;;;;;;;20.20;99.90;;;;;;5128525;27;19919;-44
2023/08/06 11:12:50;;;;;;;;;;;20.30;99.90;;;;;;5131421;27;19911;-44
2023/08/06 11:15:16;;;;;;;;;;;20.30;99.90;;;;;;5136524;27;19994;-43
2023/08/06 11:17:42;;;;;;;;;;;20.30;99.90;;;;;;5132526;27;19912;-44
2023/08/06 11:20:08;;;;;;;;;;;20.50;99.90;;;;;;5139878;27;19919;-44
2023/08/06 11:22:33;;;;;;;;;;;20.70;99.90;;;;;;5139045;27;20006;-44
2023/08/06 11:25:00;;;;;;;;;;;20.90;99.90;;;;;;5147266;27;20322;-42
2023/08/06 11:27:27;;;;;;;;;;;21.10;99.90;;;;;;5138224;27;20013;-44
2023/08/06 11:29:52;;;;;;;;;;;21.20;99.90;;;;;;5143994;27;20366;-43
2023/08/06 11:32:18;;;;;;;;;;;21.10;99.90;;;;;;5131619;27;19926;-45
2023/08/06 11:34:43;;;;;;;;;;;21.00;99.90;;;;;;5118114;27;19908;-43
2023/08/06 11:37:10;;;;;;;;;;;20.80;99.90;;;;;;5133132;27;19915;-43
2023/08/06 11:39:36;;;;;;;;;;;20.80;99.90;;;;;;5133825;27;20376;-45
2023/08/06 11:42:05;;;;;;;;;;;20.70;99.90;;;;;;5134208;27;19915;-46
2023/08/06 11:44:32;;;;;;;;;;;20.60;99.90;;;;;;5134686;27;20370;-45
2023/08/06 11:47:01;;;;;;;;;;;20.50;99.90;;;;;;5133787;27;20392;-44
2023/08/06 11:49:37;;;;;;;;;;;20.50;99.90;;;;;;5133784;27;20404;-45
2023/08/06 11:52:10;;;;;;;;;;;20.50;99.90;;;;;;5134761;27;19907;-44
2023/08/06 11:54:37;;;;;;;;;;;20.50;99.90;;;;;;5134034;27;19907;-46
2023/08/06 11:57:03;;;;;;;;;;;20.50;99.90;;;;;;5134393;27;19908;-44
2023/08/06 11:59:28;;;;;;;;;;;20.40;99.90;;;;;;5133089;27;19918;-46
2023/08/06 12:01:54;;;;;;;;;;;20.40;99.90;;;;;;5134867;27;19998;-44
2023/08/06 12:04:19;;;;;;;;;;;20.30;99.90;;;;;;5134369;27;19912;-46
2023/08/06 12:06:45;;;;;;;;;;;20.20;99.90;;;;;;5134165;28;19943;-46
2023/08/06 12:09:10;;;;;;;;;;;20.10;99.90;;;;;;5123539;28;19953;-45
2023/08/06 12:11:36;;;;;;;;;;;20.00;99.90;;;;;;5121164;27;19915;-44
2023/08/06 12:14:02;;;;;;;;;;;20.00;99.90;;;;;;5154507;27;19938;-50
2023/08/06 12:16:27;;;;;;;;;;;19.90;99.90;;;;;;5154738;27;19915;-46
2023/08/06 12:18:53;;;;;;;;;;;19.80;99.90;;;;;;5155167;27;19942;-45
2023/08/06 12:21:18;;;;;;;;;;;19.80;99.90;;;;;;5154615;27;19915;-45
2023/08/06 12:23:44;;;;;;;;;;;19.80;99.90;;;;;;5153189;27;19934;-44
2023/08/06 12:26:10;;;;;;;;;;;19.80;99.90;;;;;;5154855;27;20234;-45
2023/08/06 12:28:35;;;;;;;;;;;19.80;99.90;;;;;;5155813;27;19995;-45
2023/08/06 12:31:00;;;;;;;;;;;19.80;99.90;;;;;;5158645;27;20348;-44
2023/08/06 12:33:26;;;;;;;;;;;19.90;99.90;;;;;;5156744;27;19918;-44
2023/08/06 12:35:54;;;;;;;;;;;19.90;99.90;;;;;;5158008;27;20381;-45
2023/08/06 12:38:20;;;;;;;;;;;19.90;99.90;;;;;;5158586;27;19907;-48
2023/08/06 12:40:45;;;;;;;;;;;19.90;99.90;;;;;;5158687;27;20375;-45
2023/08/06 12:43:11;;;;;;;;;;;19.90;99.90;;;;;;5157853;27;19939;-45
2023/08/06 12:45:37;;;;;;;;;;;19.90;99.90;;;;;;5137824;27;19919;-44
2023/08/06 12:48:03;;;;;;;;;;;19.90;99.90;;;;;;5127599;27;19911;-44
2023/08/06 12:50:28;;;;;;;;;;;19.90;99.90;;;;;;5120854;27;19922;-44
2023/08/06 12:52:54;;;;;;;;;;;19.90;99.90;;;;;;5115881;28;19908;-45
2023/08/06 12:55:19;;;;;;;;;;;20.00;99.90;;;;;;5114737;28;19908;-45
2023/08/06 12:57:45;;;;;;;;;;;20.00;99.90;;;;;;5114132;28;19968;-44
2023/08/06 13:00:10;;;;;;;;;;;20.00;99.90;;;;;;5114766;28;20207;-44
2023/08/06 13:02:36;;;;;;;;;;;20.00;99.90;;;;;;5126763;27;19918;-44
2023/08/06 13:05:05;;;;;;;;;;;20.00;99.90;;;;;;5134269;27;20329;-43
2023/08/06 13:07:31;;;;;;;;;;;20.00;99.90;;;;;;5135572;27;19960;-44
2023/08/06 13:09:56;;;;;;;;;;;20.00;99.90;;;;;;5137091;27;19912;-44
2023/08/06 13:12:22;;;;;;;;;;;20.00;99.90;;;;;;5136173;27;20378;-47
2023/08/06 13:14:48;;;;;;;;;;;20.10;99.90;;;;;;5136940;27;20373;-43
2023/08/06 13:17:14;;;;;;;;;;;20.10;99.90;;;;;;5136969;27;19907;-43
2023/08/06 13:19:39;;;;;;;;;;;20.10;99.90;;;;;;5136115;27;19907;-43
2023/08/06 13:22:08;;;;;;;;;;;20.10;99.90;;;;;;5136634;27;20381;-44
2023/08/06 13:24:34;;;;;;;;;;;20.00;99.90;;;;;;5128506;27;20319;-43
2023/08/06 13:27:00;;;;;;;;;;;20.10;99.90;;;;;;5126135;27;19911;-43
2023/08/06 13:29:26;;;;;;;;;;;20.10;99.90;;;;;;5141885;27;20270;-45
2023/08/06 13:31:52;;;;;;;;;;;20.10;99.90;;;;;;5134964;27;19914;-44
2023/08/06 13:34:17;;;;;;;;;;;20.10;99.90;;;;;;5146917;27;19915;-43
2023/08/06 13:36:43;;;;;;;;;;;20.10;99.90;;;;;;5157249;27;19915;-44
2023/08/06 13:39:09;;;;;;;;;;;20.20;99.90;;;;;;5155868;27;20381;-44
2023/08/06 13:41:34;;;;;;;;;;;20.30;99.90;;;;;;5139053;27;19930;-44
2023/08/06 13:44:00;;;;;;;;;;;20.40;99.90;;;;;;5135991;27;19919;-43
2023/08/06 13:46:25;;;;;;;;;;;20.50;99.90;;;;;;5135692;27;19942;-43
2023/08/06 13:48:51;;;;;;;;;;;20.70;99.90;;;;;;5136246;27;20277;-44
2023/08/06 13:51:16;;;;;;;;;;;20.90;99.90;;;;;;5135971;27;19911;-44
2023/08/06 13:53:42;;;;;;;;;;;21.10;99.90;;;;;;5136418;27;20035;-44
2023/08/06 13:56:11;;;;;;;;;;;21.10;99.90;;;;;;5136245;27;19911;-44
2023/08/06 13:58:37;;;;;;;;;;;21.00;99.90;;;;;;5135857;27;19915;-44
2023/08/06 14:01:02;;;;;;;;;;;20.90;99.90;;;;;;5135147;27;19911;-44
2023/08/06 14:03:28;;;;;;;;;;;20.80;99.90;;;;;;5136037;27;20377;-44
2023/08/06 14:05:56;;;;;;;;;;;20.70;99.90;;;;;;5115281;27;19924;-43
2023/08/06 14:08:25;;;;;;;;;;;20.70;99.90;;;;;;5114506;28;19915;-44
2023/08/06 14:10:51;;;;;;;;;;;20.60;99.90;;;;;;5115320;28;19915;-43